Time;durP1;ratioP1;P1;durP2;ratioP2;P2;SDS_P1;SDS_P2;PMS_P1;PMS_P2;Temp;Humidity;BMP_temperature;BMP_pressure;BME280_temperature;BME280_humidity;BME280_pressure;Samples;Min_cycle;Max_cycle;Signal;HPM_P1;HPM_P2
2023/03/29 00:02:01;;;;;;;2.70;2.33;;;;;;;;;;5048538;28;20190;-80
2023/03/29 00:04:28;;;;;;;5.60;2.63;;;;;;;;;;5053730;28;20246;-81
2023/03/29 00:06:54;;;;;;;6.00;3.13;;;;;;;;;;5044498;28;20284;-80
2023/03/29 00:09:20;;;;;;;4.80;2.70;;;;;;;;;;5018998;28;20629;-80
2023/03/29 00:11:47;;;;;;;5.97;2.80;;;;;;;;;;5043813;28;20201;-80
2023/03/29 00:14:13;;;;;;;3.77;2.13;;;;;;;;;;5047734;28;20206;-79
2023/03/29 00:16:39;;;;;;;4.13;3.07;;;;;;;;;;5044948;28;20185;-80
2023/03/29 00:19:05;;;;;;;5.93;3.50;;;;;;;;;;5031090;28;20767;-79
2023/03/29 00:21:32;;;;;;;3.20;2.50;;;;;;;;;;5044817;28;20430;-80
2023/03/29 00:23:58;;;;;;;4.37;2.80;;;;;;;;;;5044128;28;20216;-81
2023/03/29 00:26:24;;;;;;;5.97;3.20;;;;;;;;;;5050505;28;20213;-80
2023/03/29 00:28:50;;;;;;;6.03;3.20;;;;;;;;;;5045894;28;20935;-80
2023/03/29 00:31:17;;;;;;;7.27;3.60;;;;;;;;;;5047569;28;20201;-80
2023/03/29 00:33:44;;;;;;;6.93;3.27;;;;;;;;;;5064798;28;20232;-79
2023/03/29 00:36:11;;;;;;;5.43;3.03;;;;;;;;;;5051398;28;20178;-80
2023/03/29 00:38:37;;;;;;;3.10;2.30;;;;;;;;;;5046030;28;20213;-80
2023/03/29 00:41:05;;;;;;;7.57;4.17;;;;;;;;;;5016225;28;20350;-79
2023/03/29 00:43:50;;;;;;;11.13;5.43;;;;;;;;;;5047599;28;21032;-81
2023/03/29 00:46:16;;;;;;;7.37;3.83;;;;;;;;;;5043000;28;20256;-81
2023/03/29 00:48:43;;;;;;;5.50;3.13;;;;;;;;;;5046761;28;20216;-80
2023/03/29 00:51:13;;;;;;;3.90;2.67;;;;;;;;;;5047250;28;20240;-80
2023/03/29 00:53:42;;;;;;;7.33;3.43;;;;;;;;;;5027209;28;20202;-81
2023/03/29 00:56:12;;;;;;;10.07;4.50;;;;;;;;;;5027303;28;20560;-80
2023/03/29 00:58:39;;;;;;;8.50;4.67;;;;;;;;;;5027219;28;20185;-79
2023/03/29 01:01:14;;;;;;;7.17;4.00;;;;;;;;;;5045255;28;21599;-81
2023/03/29 01:03:45;;;;;;;8.20;5.03;;;;;;;;;;5043044;28;20684;-77
2023/03/29 01:06:13;;;;;;;6.97;3.60;;;;;;;;;;5027883;28;20186;-77
2023/03/29 01:09:00;;;;;;;15.53;7.57;;;;;;;;;;5025659;28;20256;-77
2023/03/29 01:11:35;;;;;;;11.37;6.33;;;;;;;;;;5036248;28;20236;-78
2023/03/29 01:14:04;;;;;;;10.87;5.87;;;;;;;;;;5029354;28;20286;-78
2023/03/29 01:16:31;;;;;;;10.30;5.83;;;;;;;;;;5029177;28;20194;-80
2023/03/29 01:18:59;;;;;;;12.07;6.63;;;;;;;;;;5026420;28;20213;-79
2023/03/29 01:21:31;;;;;;;12.93;6.17;;;;;;;;;;5029727;28;20208;-79
2023/03/29 01:24:09;;;;;;;8.13;4.33;;;;;;;;;;5029119;28;20233;-79
2023/03/29 01:26:50;;;;;;;6.10;3.70;;;;;;;;;;5015306;28;20190;-79
2023/03/29 01:29:34;;;;;;;7.17;3.67;;;;;;;;;;5032870;28;20181;-80
2023/03/29 01:32:13;;;;;;;5.90;3.27;;;;;;;;;;5009752;28;20548;-80
2023/03/29 01:34:47;;;;;;;4.80;3.00;;;;;;;;;;5051472;28;20202;-79
2023/03/29 01:37:26;;;;;;;3.57;2.30;;;;;;;;;;5036703;28;20193;-80
2023/03/29 01:39:52;;;;;;;2.77;2.20;;;;;;;;;;5050582;28;20219;-80
2023/03/29 01:42:19;;;;;;;3.03;2.10;;;;;;;;;;5037480;28;21720;-80
2023/03/29 01:44:52;;;;;;;3.40;2.10;;;;;;;;;;5035949;28;20194;-79
2023/03/29 01:47:21;;;;;;;2.90;2.07;;;;;;;;;;5051257;28;20261;-80
2023/03/29 01:49:53;;;;;;;7.50;3.80;;;;;;;;;;5051242;28;20209;-80
2023/03/29 01:52:24;;;;;;;6.53;3.13;;;;;;;;;;5036489;28;21020;-80
2023/03/29 01:55:00;;;;;;;3.93;2.83;;;;;;;;;;5033720;28;20205;-80
2023/03/29 01:57:26;;;;;;;9.30;4.13;;;;;;;;;;5035335;28;20190;-79
2023/03/29 01:59:54;;;;;;;8.67;4.17;;;;;;;;;;5034270;28;20673;-80
2023/03/29 02:02:21;;;;;;;8.70;4.73;;;;;;;;;;5051304;28;20664;-79
2023/03/29 02:04:49;;;;;;;7.13;4.17;;;;;;;;;;5051496;28;20193;-79
2023/03/29 02:07:17;;;;;;;7.67;4.20;;;;;;;;;;5035494;28;20793;-80
2023/03/29 02:09:43;;;;;;;3.30;2.60;;;;;;;;;;5026479;28;20191;-78
2023/03/29 02:12:10;;;;;;;3.73;2.53;;;;;;;;;;5031160;28;20216;-80
2023/03/29 02:14:37;;;;;;;3.73;2.30;;;;;;;;;;5030491;28;20665;-81
2023/03/29 02:17:26;;;;;;;4.57;2.60;;;;;;;;;;5050612;28;20555;-80
2023/03/29 02:20:16;;;;;;;4.93;2.33;;;;;;;;;;5037781;28;20224;-80
2023/03/29 02:22:46;;;;;;;3.80;2.40;;;;;;;;;;5048029;28;20738;-80
2023/03/29 02:25:14;;;;;;;3.60;2.30;;;;;;;;;;5034250;28;20276;-80
2023/03/29 02:27:40;;;;;;;4.40;2.50;;;;;;;;;;5034489;28;20998;-80
2023/03/29 02:30:08;;;;;;;3.00;2.20;;;;;;;;;;5049158;28;20216;-80
2023/03/29 02:32:39;;;;;;;2.70;2.20;;;;;;;;;;5010761;28;20185;-79
2023/03/29 02:35:13;;;;;;;3.23;2.23;;;;;;;;;;5031690;28;20543;-80
2023/03/29 02:37:42;;;;;;;4.23;2.20;;;;;;;;;;5029302;28;20178;-80
2023/03/29 02:40:11;;;;;;;2.90;2.30;;;;;;;;;;5026389;28;20983;-80
2023/03/29 02:42:39;;;;;;;4.23;2.50;;;;;;;;;;5047279;28;20192;-80
2023/03/29 02:45:06;;;;;;;3.50;2.43;;;;;;;;;;5024030;28;20198;-80
2023/03/29 02:47:35;;;;;;;2.40;2.20;;;;;;;;;;5032586;28;20631;-80
2023/03/29 02:50:01;;;;;;;3.47;2.30;;;;;;;;;;5032162;28;20201;-80
2023/03/29 02:52:36;;;;;;;3.20;2.20;;;;;;;;;;5049200;28;20197;-79
2023/03/29 02:55:04;;;;;;;3.30;2.73;;;;;;;;;;5038224;28;20887;-79
2023/03/29 02:57:31;;;;;;;18.80;6.27;;;;;;;;;;5051259;28;20231;-78
2023/03/29 02:59:58;;;;;;;13.73;6.20;;;;;;;;;;5066414;28;20428;-80
2023/03/29 03:02:26;;;;;;;6.97;3.60;;;;;;;;;;5065189;28;20554;-78
2023/03/29 03:04:54;;;;;;;3.50;2.97;;;;;;;;;;5044255;28;20181;-79
2023/03/29 03:07:20;;;;;;;9.83;3.33;;;;;;;;;;5045582;28;20194;-77
2023/03/29 03:09:47;;;;;;;8.67;4.10;;;;;;;;;;5030733;28;20194;-78
2023/03/29 03:12:14;;;;;;;7.00;3.67;;;;;;;;;;5010715;28;20178;-80
2023/03/29 03:14:40;;;;;;;3.83;2.70;;;;;;;;;;5043046;28;20685;-80
2023/03/29 03:17:06;;;;;;;3.47;2.80;;;;;;;;;;5026818;28;20190;-78
2023/03/29 03:19:33;;;;;;;8.70;3.30;;;;;;;;;;5028865;28;20194;-77
2023/03/29 03:21:59;;;;;;;10.87;4.30;;;;;;;;;;5028179;28;20662;-78
2023/03/29 03:24:26;;;;;;;16.50;6.10;;;;;;;;;;5040606;28;20672;-78
2023/03/29 03:26:53;;;;;;;9.27;4.50;;;;;;;;;;5037496;28;20830;-80
2023/03/29 03:29:19;;;;;;;4.13;3.10;;;;;;;;;;5045128;28;20209;-79
2023/03/29 03:32:06;;;;;;;3.90;2.83;;;;;;;;;;5040789;28;20225;-79
2023/03/29 03:34:51;;;;;;;6.50;3.97;;;;;;;;;;5040156;28;20210;-80
2023/03/29 03:37:17;;;;;;;11.47;6.23;;;;;;;;;;5045626;28;20300;-80
2023/03/29 03:39:43;;;;;;;7.57;4.63;;;;;;;;;;5030555;28;20221;-79
2023/03/29 03:42:10;;;;;;;6.73;4.07;;;;;;;;;;5053824;28;20182;-80
2023/03/29 03:44:42;;;;;;;10.23;5.07;;;;;;;;;;5050971;28;20265;-79
2023/03/29 03:47:41;;;;;;;10.63;5.87;;;;;;;;;;5029081;28;20285;-80
2023/03/29 03:50:30;;;;;;;9.07;4.30;;;;;;;;;;5023334;28;20218;-80
2023/03/29 03:52:57;;;;;;;7.43;4.10;;;;;;;;;;5031759;28;20294;-77
2023/03/29 03:55:23;;;;;;;7.83;4.00;;;;;;;;;;5034048;28;20182;-79
2023/03/29 03:57:58;;;;;;;5.87;3.90;;;;;;;;;;5027423;28;20177;-79
2023/03/29 04:00:25;;;;;;;7.23;4.37;;;;;;;;;;5056321;28;20459;-78
2023/03/29 04:03:06;;;;;;;8.77;4.30;;;;;;;;;;5050346;28;20765;-79
2023/03/29 04:05:38;;;;;;;6.60;4.37;;;;;;;;;;5033053;28;20275;-78
2023/03/29 04:08:05;;;;;;;7.25;4.32;;;;;;;;;;5038329;28;20557;-78
2023/03/29 04:11:00;;;;;;;5.30;3.90;;;;;;;;;;5013409;28;20214;-79
2023/03/29 04:13:34;;;;;;;5.13;3.77;;;;;;;;;;5042625;28;20209;-78
2023/03/29 04:16:19;;;;;;;5.38;3.50;;;;;;;;;;5038069;28;20461;-79
2023/03/29 04:18:46;;;;;;;5.53;3.60;;;;;;;;;;5036633;28;20224;-79
2023/03/29 04:21:13;;;;;;;6.10;3.80;;;;;;;;;;5046279;28;20202;-79
2023/03/29 04:23:39;;;;;;;4.67;3.90;;;;;;;;;;5045117;28;20213;-79
2023/03/29 04:26:06;;;;;;;10.90;5.20;;;;;;;;;;5032829;28;20182;-79
2023/03/29 04:28:52;;;;;;;12.60;5.83;;;;;;;;;;5030308;28;20200;-77
2023/03/29 04:31:24;;;;;;;29.60;12.07;;;;;;;;;;5045458;28;20225;-79
2023/03/29 04:33:56;;;;;;;13.37;5.90;;;;;;;;;;5045070;28;20220;-79
2023/03/29 04:36:22;;;;;;;8.73;4.67;;;;;;;;;;5045200;28;20185;-79
2023/03/29 04:38:51;;;;;;;6.87;4.10;;;;;;;;;;5024239;28;20255;-78
2023/03/29 04:41:19;;;;;;;5.63;3.60;;;;;;;;;;5027556;28;20252;-80
2023/03/29 04:43:58;;;;;;;5.83;3.10;;;;;;;;;;5019805;28;20198;-79
2023/03/29 04:46:25;;;;;;;4.77;3.30;;;;;;;;;;5027412;28;20704;-80
2023/03/29 04:49:10;;;;;;;6.07;4.03;;;;;;;;;;5062096;28;20207;-79
2023/03/29 04:51:43;;;;;;;6.97;4.83;;;;;;;;;;5025367;28;20240;-79
2023/03/29 04:54:10;;;;;;;8.43;5.33;;;;;;;;;;5026514;28;20214;-78
2023/03/29 04:56:58;;;;;;;5.83;4.40;;;;;;;;;;5012615;28;20184;-80
2023/03/29 04:59:40;;;;;;;6.90;4.13;;;;;;;;;;5016539;28;20178;-79
2023/03/29 05:02:18;;;;;;;6.47;3.90;;;;;;;;;;5043587;28;20213;-79
2023/03/29 05:04:47;;;;;;;5.77;3.90;;;;;;;;;;5028864;28;20208;-80
2023/03/29 05:07:17;;;;;;;5.40;3.93;;;;;;;;;;5028721;28;20251;-78
2023/03/29 05:09:43;;;;;;;5.77;4.07;;;;;;;;;;5043537;28;20542;-77
2023/03/29 05:12:11;;;;;;;5.40;3.97;;;;;;;;;;5044493;28;20268;-78
2023/03/29 05:14:53;;;;;;;6.00;4.20;;;;;;;;;;5033219;28;20793;-79
2023/03/29 05:17:25;;;;;;;7.37;4.40;;;;;;;;;;5033810;28;20186;-77
2023/03/29 05:19:53;;;;;;;5.57;4.20;;;;;;;;;;5049826;28;20273;-78
2023/03/29 05:22:20;;;;;;;6.57;4.30;;;;;;;;;;5033624;28;20216;-79
2023/03/29 05:24:47;;;;;;;5.47;4.33;;;;;;;;;;5032443;28;20186;-77
2023/03/29 05:27:17;;;;;;;4.77;3.87;;;;;;;;;;5031287;28;20201;-77
2023/03/29 05:29:53;;;;;;;6.93;4.40;;;;;;;;;;5044428;28;20197;-77
2023/03/29 05:32:36;;;;;;;6.47;4.37;;;;;;;;;;5045117;28;20216;-78
2023/03/29 05:35:02;;;;;;;6.87;4.23;;;;;;;;;;5036794;28;20279;-78
2023/03/29 05:37:28;;;;;;;5.70;3.90;;;;;;;;;;5050823;28;20243;-78
2023/03/29 05:39:58;;;;;;;6.47;4.27;;;;;;;;;;5047546;28;20913;-78
2023/03/29 05:42:30;;;;;;;6.90;4.00;;;;;;;;;;5033470;28;20186;-79
2023/03/29 05:45:00;;;;;;;7.67;5.00;;;;;;;;;;5031479;28;20182;-77
2023/03/29 05:47:27;;;;;;;9.20;4.93;;;;;;;;;;5037445;28;20349;-77
2023/03/29 05:49:53;;;;;;;6.73;4.50;;;;;;;;;;5049603;28;20205;-76
2023/03/29 05:52:21;;;;;;;6.77;4.13;;;;;;;;;;5029719;28;20204;-78
2023/03/29 05:54:47;;;;;;;9.37;5.30;;;;;;;;;;5027394;28;20215;-76
2023/03/29 05:57:15;;;;;;;7.13;4.67;;;;;;;;;;5065986;28;20186;-79
2023/03/29 05:59:41;;;;;;;10.03;5.10;;;;;;;;;;5034077;28;20181;-80
2023/03/29 06:02:09;;;;;;;10.13;4.80;;;;;;;;;;5042634;28;20662;-80
2023/03/29 06:04:39;;;;;;;6.83;3.83;;;;;;;;;;5033345;28;20186;-83
2023/03/29 06:07:23;;;;;;;11.30;4.43;;;;;;;;;;5028217;28;20189;-84
2023/03/29 06:10:19;;;;;;;8.80;4.40;;;;;;;;;;5043082;28;20312;-84
2023/03/29 06:12:50;;;;;;;8.10;4.37;;;;;;;;;;5030471;28;20196;-84
2023/03/29 06:15:20;;;;;;;12.90;5.63;;;;;;;;;;5026903;28;20200;-84
2023/03/29 06:17:50;;;;;;;14.33;5.50;;;;;;;;;;5030947;28;21696;-83
2023/03/29 06:20:17;;;;;;;7.73;4.03;;;;;;;;;;5036001;28;20209;-84
2023/03/29 06:22:47;;;;;;;6.00;3.80;;;;;;;;;;5049994;28;20209;-83
2023/03/29 06:25:14;;;;;;;5.03;3.27;;;;;;;;;;5031307;28;20253;-83
2023/03/29 06:27:45;;;;;;;5.33;3.30;;;;;;;;;;5029546;28;20186;-83
2023/03/29 06:30:14;;;;;;;3.33;3.00;;;;;;;;;;5012944;28;20233;-82
2023/03/29 06:32:40;;;;;;;4.50;2.83;;;;;;;;;;5029020;28;20197;-82
2023/03/29 06:35:15;;;;;;;3.07;2.77;;;;;;;;;;5047507;28;20232;-82
2023/03/29 06:37:52;;;;;;;3.23;2.73;;;;;;;;;;5046088;28;20194;-83
2023/03/29 06:40:44;;;;;;;3.97;2.60;;;;;;;;;;5058665;28;20221;-82
2023/03/29 06:43:10;;;;;;;4.07;2.63;;;;;;;;;;5025735;28;20178;-84
2023/03/29 06:45:53;;;;;;;5.70;2.67;;;;;;;;;;5027038;28;20182;-82
2023/03/29 06:48:26;;;;;;;5.23;3.07;;;;;;;;;;5015356;28;20277;-81
2023/03/29 06:50:53;;;;;;;3.70;2.83;;;;;;;;;;5047999;28;20223;-81
2023/03/29 06:53:23;;;;;;;4.33;2.67;;;;;;;;;;5014496;28;20205;-82
2023/03/29 06:55:58;;;;;;;6.93;3.13;;;;;;;;;;5048361;28;20190;-83
2023/03/29 06:58:39;;;;;;;4.73;3.03;;;;;;;;;;5031094;28;20239;-81
2023/03/29 07:01:25;;;;;;;6.10;3.10;;;;;;;;;;5044340;28;20209;-83
2023/03/29 07:03:59;;;;;;;4.60;3.20;;;;;;;;;;5029153;28;20273;-82
2023/03/29 07:06:32;;;;;;;5.00;3.77;;;;;;;;;;5051267;28;20185;-82
2023/03/29 07:09:01;;;;;;;5.33;3.33;;;;;;;;;;5050934;28;20182;-84
2023/03/29 07:11:45;;;;;;;4.87;3.20;;;;;;;;;;5031391;28;20202;-82
2023/03/29 07:14:20;;;;;;;4.40;3.07;;;;;;;;;;5032617;28;20232;-83
2023/03/29 07:16:47;;;;;;;3.83;2.93;;;;;;;;;;5034950;28;20174;-83
2023/03/29 07:19:24;;;;;;;4.07;3.50;;;;;;;;;;5026875;28;20185;-83
2023/03/29 07:21:52;;;;;;;4.97;3.07;;;;;;;;;;5033227;28;20271;-83
2023/03/29 07:24:19;;;;;;;5.13;3.53;;;;;;;;;;5033762;28;20182;-83
2023/03/29 07:26:47;;;;;;;4.47;3.13;;;;;;;;;;5051213;28;20181;-82
2023/03/29 07:29:14;;;;;;;5.40;3.30;;;;;;;;;;5017399;28;20190;-84
2023/03/29 07:31:42;;;;;;;4.77;3.20;;;;;;;;;;5051477;28;20202;-83
2023/03/29 07:34:29;;;;;;;4.20;3.33;;;;;;;;;;5036763;28;20237;-82
2023/03/29 07:36:56;;;;;;;6.03;3.00;;;;;;;;;;5046944;28;20186;-83
2023/03/29 07:39:25;;;;;;;5.40;3.50;;;;;;;;;;5041633;28;20182;-83
2023/03/29 07:42:11;;;;;;;5.13;3.50;;;;;;;;;;5055458;28;20671;-83
2023/03/29 07:44:37;;;;;;;5.27;3.37;;;;;;;;;;5032971;28;20186;-83
2023/03/29 07:47:04;;;;;;;5.50;3.63;;;;;;;;;;5030444;28;20214;-83
2023/03/29 07:49:30;;;;;;;4.83;3.37;;;;;;;;;;5023118;28;20573;-83
2023/03/29 07:51:57;;;;;;;6.07;3.30;;;;;;;;;;5038541;28;20226;-82
2023/03/29 07:54:23;;;;;;;4.97;3.60;;;;;;;;;;5043085;28;20576;-83
2023/03/29 07:57:18;;;;;;;4.13;3.10;;;;;;;;;;5031622;28;20650;-83
2023/03/29 07:59:50;;;;;;;5.30;3.40;;;;;;;;;;5025532;28;20186;-81
2023/03/29 08:02:22;;;;;;;4.93;3.60;;;;;;;;;;5031366;28;20243;-83
2023/03/29 08:04:52;;;;;;;5.30;3.40;;;;;;;;;;5043294;28;20232;-82
2023/03/29 08:07:39;;;;;;;5.03;3.40;;;;;;;;;;5029341;28;20672;-83
2023/03/29 08:10:38;;;;;;;6.13;3.40;;;;;;;;;;5011962;28;20287;-83
2023/03/29 08:13:18;;;;;;;3.33;3.03;;;;;;;;;;5031296;28;20300;-84
2023/03/29 08:15:56;;;;;;;4.93;3.47;;;;;;;;;;5046311;28;20185;-83
2023/03/29 08:18:28;;;;;;;4.57;3.60;;;;;;;;;;5030513;28;20228;-81
2023/03/29 08:20:55;;;;;;;3.63;3.33;;;;;;;;;;5025308;28;20208;-83
2023/03/29 08:23:22;;;;;;;3.90;3.30;;;;;;;;;;5041855;28;20539;-81
2023/03/29 08:26:11;;;;;;;5.13;3.47;;;;;;;;;;5055337;28;20684;-84
2023/03/29 08:28:38;;;;;;;7.27;3.97;;;;;;;;;;5030180;28;20185;-83
2023/03/29 08:31:06;;;;;;;8.23;3.37;;;;;;;;;;5032474;28;20210;-83
2023/03/29 08:33:32;;;;;;;5.57;3.30;;;;;;;;;;5041371;28;20210;-83
2023/03/29 08:36:17;;;;;;;5.60;3.20;;;;;;;;;;5039531;28;20177;-83
2023/03/29 08:38:44;;;;;;;3.77;3.20;;;;;;;;;;5031049;28;20182;-83
2023/03/29 08:41:26;;;;;;;6.03;3.10;;;;;;;;;;5050487;28;20280;-82
2023/03/29 08:44:00;;;;;;;5.50;3.57;;;;;;;;;;5031519;28;20201;-81
2023/03/29 08:46:55;;;;;;;4.97;3.10;;;;;;;;;;5036687;28;20194;-82
2023/03/29 08:49:27;;;;;;;6.37;3.30;;;;;;;;;;5044107;28;20182;-82
2023/03/29 08:51:57;;;;;;;4.47;2.90;;;;;;;;;;5036383;28;20719;-82
2023/03/29 08:54:26;;;;;;;6.10;3.53;;;;;;;;;;5035971;28;20708;-83
2023/03/29 08:57:21;;;;;;;7.17;3.60;;;;;;;;;;5056151;28;20195;-83
2023/03/29 08:59:53;;;;;;;5.73;3.20;;;;;;;;;;5031001;28;21951;-82
2023/03/29 09:02:22;;;;;;;4.23;3.17;;;;;;;;;;5009335;28;20192;-82
2023/03/29 09:04:52;;;;;;;4.60;3.23;;;;;;;;;;5026713;28;20296;-83
2023/03/29 09:07:39;;;;;;;5.17;3.10;;;;;;;;;;5022895;28;20292;-83
2023/03/29 09:10:12;;;;;;;5.07;2.93;;;;;;;;;;5043620;28;20664;-83
2023/03/29 09:12:51;;;;;;;4.30;3.50;;;;;;;;;;5011737;28;20240;-83
2023/03/29 09:15:22;;;;;;;3.17;2.80;;;;;;;;;;5013842;28;20453;-82
2023/03/29 09:18:11;;;;;;;4.40;2.80;;;;;;;;;;5015743;28;20584;-82
2023/03/29 09:20:56;;;;;;;3.47;2.90;;;;;;;;;;5040051;28;20248;-83
2023/03/29 09:23:30;;;;;;;5.30;3.03;;;;;;;;;;5044917;28;20741;-83
2023/03/29 09:26:24;;;;;;;3.37;2.93;;;;;;;;;;5027982;28;20654;-82
2023/03/29 09:29:15;;;;;;;5.33;2.70;;;;;;;;;;5042831;28;20186;-82
2023/03/29 09:31:45;;;;;;;4.47;2.63;;;;;;;;;;5043137;28;20207;-80
2023/03/29 09:34:34;;;;;;;5.67;3.23;;;;;;;;;;5023901;28;20206;-80
2023/03/29 09:37:14;;;;;;;5.63;2.80;;;;;;;;;;5038023;28;20187;-82
2023/03/29 09:39:42;;;;;;;3.43;2.63;;;;;;;;;;5023427;28;20182;-82
2023/03/29 09:42:13;;;;;;;5.17;3.30;;;;;;;;;;5007442;28;20672;-80
2023/03/29 09:44:43;;;;;;;7.50;3.03;;;;;;;;;;5040545;28;20196;-81
2023/03/29 09:47:18;;;;;;;3.40;2.87;;;;;;;;;;5044566;28;20209;-79
2023/03/29 09:49:47;;;;;;;4.10;2.70;;;;;;;;;;5040670;28;20213;-74
2023/03/29 09:52:15;;;;;;;6.73;3.10;;;;;;;;;;5061317;28;20186;-78
2023/03/29 09:54:48;;;;;;;4.27;2.80;;;;;;;;;;5043308;28;20245;-83
2023/03/29 09:57:34;;;;;;;5.70;3.17;;;;;;;;;;5041402;28;20194;-76
2023/03/29 10:00:04;;;;;;;4.40;3.00;;;;;;;;;;5023118;28;20206;-81
2023/03/29 10:02:40;;;;;;;6.17;3.30;;;;;;;;;;5029669;28;20178;-82
2023/03/29 10:05:08;;;;;;;4.33;2.90;;;;;;;;;;5016982;28;20831;-82
2023/03/29 10:07:43;;;;;;;3.60;2.90;;;;;;;;;;5028012;28;20189;-82
2023/03/29 10:10:18;;;;;;;4.73;2.90;;;;;;;;;;5048401;28;20378;-82
2023/03/29 10:12:52;;;;;;;10.50;3.00;;;;;;;;;;5027767;28;20724;-81
2023/03/29 10:15:19;;;;;;;8.63;3.97;;;;;;;;;;5030715;28;20206;-82
2023/03/29 10:17:46;;;;;;;5.97;3.20;;;;;;;;;;5018007;28;20533;-82
2023/03/29 10:20:14;;;;;;;5.03;2.50;;;;;;;;;;5027629;28;20690;-82
2023/03/29 10:22:47;;;;;;;4.30;2.70;;;;;;;;;;5031196;28;23986;-87
2023/03/29 10:25:13;;;;;;;4.43;2.60;;;;;;;;;;5061203;28;20184;-85
2023/03/29 10:27:41;;;;;;;3.50;2.40;;;;;;;;;;5033987;28;20213;-80
2023/03/29 10:30:10;;;;;;;3.90;2.60;;;;;;;;;;5029593;28;20206;-82
2023/03/29 10:32:37;;;;;;;5.67;3.60;;;;;;;;;;5052363;28;20190;-82
2023/03/29 10:35:13;;;;;;;5.93;3.13;;;;;;;;;;5051294;28;20205;-82
2023/03/29 10:37:43;;;;;;;5.43;3.10;;;;;;;;;;5025321;28;20276;-81
2023/03/29 10:40:20;;;;;;;3.70;2.83;;;;;;;;;;5023965;28;20237;-82
2023/03/29 10:42:52;;;;;;;5.50;2.70;;;;;;;;;;5068080;28;20178;-82
2023/03/29 10:45:29;;;;;;;3.97;2.30;;;;;;;;;;5037207;28;20221;-79
2023/03/29 10:47:57;;;;;;;3.77;2.70;;;;;;;;;;5035451;28;20181;-81
2023/03/29 10:50:23;;;;;;;4.40;2.53;;;;;;;;;;5029308;28;20221;-81
2023/03/29 10:52:50;;;;;;;5.87;2.70;;;;;;;;;;5035866;28;20197;-80
2023/03/29 10:55:17;;;;;;;2.80;2.37;;;;;;;;;;5049689;28;20213;-81
2023/03/29 10:58:01;;;;;;;3.80;2.70;;;;;;;;;;5049890;28;20179;-82
2023/03/29 11:00:40;;;;;;;7.53;4.47;;;;;;;;;;5053595;28;20233;-81
2023/03/29 11:03:15;;;;;;;5.20;3.03;;;;;;;;;;5023322;28;20738;-82
2023/03/29 11:05:48;;;;;;;4.13;3.20;;;;;;;;;;5019305;28;20188;-82
2023/03/29 11:08:17;;;;;;;4.00;2.70;;;;;;;;;;5027453;28;20788;-81
2023/03/29 11:10:54;;;;;;;10.73;4.20;;;;;;;;;;5034657;28;20300;-80
2023/03/29 11:13:26;;;;;;;4.70;3.20;;;;;;;;;;5048268;28;20158;-82
2023/03/29 11:15:52;;;;;;;4.83;3.53;;;;;;;;;;5051054;28;21682;-81
2023/03/29 11:18:28;;;;;;;6.53;3.50;;;;;;;;;;5038693;28;20190;-82
2023/03/29 11:21:09;;;;;;;3.00;2.70;;;;;;;;;;5037173;28;20200;-82
2023/03/29 11:23:36;;;;;;;3.47;3.00;;;;;;;;;;5027723;28;21011;-82
2023/03/29 11:26:08;;;;;;;5.70;3.13;;;;;;;;;;5051232;28;20269;-81
2023/03/29 11:28:37;;;;;;;4.97;3.13;;;;;;;;;;5046486;28;20202;-82
2023/03/29 11:31:10;;;;;;;6.07;2.93;;;;;;;;;;5047873;28;20331;-82
2023/03/29 11:33:55;;;;;;;5.93;3.10;;;;;;;;;;5028287;28;20213;-82
2023/03/29 11:36:24;;;;;;;3.00;2.67;;;;;;;;;;5032921;28;20190;-81
2023/03/29 11:39:00;;;;;;;4.73;2.83;;;;;;;;;;5030969;28;20185;-81
2023/03/29 11:41:27;;;;;;;3.20;2.80;;;;;;;;;;5058223;28;20209;-82
2023/03/29 11:44:01;;;;;;;5.53;3.00;;;;;;;;;;5033044;28;20314;-81
2023/03/29 11:46:31;;;;;;;4.67;3.10;;;;;;;;;;5034108;28;20295;-82
2023/03/29 11:49:00;;;;;;;4.13;2.80;;;;;;;;;;5031917;28;20190;-80
2023/03/29 11:51:29;;;;;;;3.63;2.80;;;;;;;;;;5049927;28;20228;-82
2023/03/29 11:54:25;;;;;;;5.17;3.10;;;;;;;;;;5049576;28;20849;-82
2023/03/29 11:56:56;;;;;;;5.30;2.80;;;;;;;;;;5041479;28;20201;-81
2023/03/29 11:59:31;;;;;;;4.17;2.70;;;;;;;;;;5032784;28;20186;-81
2023/03/29 12:02:10;;;;;;;4.13;3.17;;;;;;;;;;5031743;28;20206;-81
2023/03/29 12:04:42;;;;;;;3.93;2.97;;;;;;;;;;5048636;28;20185;-81
2023/03/29 12:07:38;;;;;;;4.07;2.90;;;;;;;;;;5030256;28;20697;-81
2023/03/29 12:10:19;;;;;;;4.90;2.80;;;;;;;;;;5007837;28;20237;-80
2023/03/29 12:13:09;;;;;;;3.83;3.00;;;;;;;;;;5021288;28;20269;-81
2023/03/29 12:15:42;;;;;;;3.83;2.70;;;;;;;;;;5024274;28;20224;-82
2023/03/29 12:18:22;;;;;;;3.37;2.60;;;;;;;;;;5041061;28;20178;-81
2023/03/29 12:20:53;;;;;;;3.47;2.50;;;;;;;;;;5046678;28;20205;-82
2023/03/29 12:23:22;;;;;;;2.90;2.60;;;;;;;;;;5030983;28;20600;-80
2023/03/29 12:25:56;;;;;;;3.23;2.70;;;;;;;;;;5034296;28;20212;-82
2023/03/29 12:28:51;;;;;;;5.07;2.83;;;;;;;;;;5033701;28;20223;-81
2023/03/29 12:31:20;;;;;;;5.50;2.80;;;;;;;;;;5018669;28;20216;-82
2023/03/29 12:33:49;;;;;;;4.23;3.03;;;;;;;;;;5051387;28;20204;-81
2023/03/29 12:36:52;;;;;;;3.53;3.00;;;;;;;;;;5051200;28;20992;-82
2023/03/29 12:39:41;;;;;;;4.20;3.10;;;;;;;;;;5051603;28;20268;-82
2023/03/29 12:42:26;;;;;;;3.37;2.97;;;;;;;;;;5035807;28;20182;-82
2023/03/29 12:45:39;;;;;;;3.97;2.80;;;;;;;;;;5032294;28;20209;-82
2023/03/29 12:48:06;;;;;;;3.63;2.60;;;;;;;;;;5036073;28;20209;-80
2023/03/29 12:50:34;;;;;;;3.90;3.03;;;;;;;;;;5033994;28;20210;-83
2023/03/29 12:53:22;;;;;;;4.50;2.90;;;;;;;;;;5049805;28;20190;-84
2023/03/29 12:55:51;;;;;;;3.30;2.87;;;;;;;;;;5034065;28;20182;-83
2023/03/29 12:58:26;;;;;;;3.40;3.10;;;;;;;;;;5041941;28;20256;-82
2023/03/29 13:00:57;;;;;;;3.30;2.70;;;;;;;;;;5041724;28;20656;-83
2023/03/29 13:03:26;;;;;;;3.77;2.70;;;;;;;;;;5027626;28;20186;-81
2023/03/29 13:06:03;;;;;;;4.90;2.80;;;;;;;;;;5029715;28;20197;-83
2023/03/29 13:08:36;;;;;;;4.80;2.33;;;;;;;;;;5045011;28;20188;-83
2023/03/29 13:11:03;;;;;;;2.70;2.50;;;;;;;;;;5023241;28;20209;-83
2023/03/29 13:13:32;;;;;;;3.33;2.33;;;;;;;;;;5025645;28;20268;-82
2023/03/29 13:16:11;;;;;;;5.33;2.43;;;;;;;;;;5028882;28;20196;-82
2023/03/29 13:18:56;;;;;;;3.33;2.33;;;;;;;;;;5043298;28;20178;-82
2023/03/29 13:21:28;;;;;;;4.07;2.33;;;;;;;;;;5012460;28;20592;-83
2023/03/29 13:24:08;;;;;;;3.17;2.20;;;;;;;;;;5035954;28;20193;-83
2023/03/29 13:26:41;;;;;;;3.93;2.20;;;;;;;;;;5055557;28;20182;-83
2023/03/29 13:29:21;;;;;;;3.10;2.40;;;;;;;;;;5046647;28;20235;-84
2023/03/29 13:32:14;;;;;;;3.20;2.40;;;;;;;;;;5046367;28;20206;-84
2023/03/29 13:34:40;;;;;;;4.33;2.30;;;;;;;;;;4989875;28;20218;-84
2023/03/29 13:37:25;;;;;;;3.03;2.20;;;;;;;;;;5032390;28;20221;-80
2023/03/29 13:39:52;;;;;;;3.77;2.30;;;;;;;;;;5019787;28;20181;-83
2023/03/29 13:42:37;;;;;;;7.73;2.50;;;;;;;;;;5035552;28;20271;-82
2023/03/29 13:45:13;;;;;;;5.37;3.77;;;;;;;;;;5024853;28;20194;-83
2023/03/29 13:47:41;;;;;;;3.30;2.70;;;;;;;;;;5027263;28;20190;-83
2023/03/29 13:50:28;;;;;;;3.73;2.30;;;;;;;;;;5051861;28;20225;-85
2023/03/29 13:53:10;;;;;;;2.30;2.10;;;;;;;;;;5052268;28;20177;-87
2023/03/29 13:55:42;;;;;;;3.70;2.30;;;;;;;;;;5062324;28;20202;-84
2023/03/29 13:58:27;;;;;;;2.57;2.30;;;;;;;;;;5034987;28;20627;-83
2023/03/29 14:00:59;;;;;;;4.63;3.23;;;;;;;;;;5033257;28;20242;-83
2023/03/29 14:03:28;;;;;;;2.80;2.50;;;;;;;;;;5050476;28;20190;-82
2023/03/29 14:06:03;;;;;;;4.50;2.30;;;;;;;;;;5045255;28;20691;-81
2023/03/29 14:08:40;;;;;;;3.13;2.20;;;;;;;;;;5023443;28;20203;-81
2023/03/29 14:11:07;;;;;;;4.87;2.50;;;;;;;;;;5019683;28;20214;-84
2023/03/29 14:13:34;;;;;;;10.87;2.50;;;;;;;;;;5048483;28;20615;-83
2023/03/29 14:16:02;;;;;;;3.93;2.33;;;;;;;;;;5050737;28;20652;-84
2023/03/29 14:18:33;;;;;;;3.73;2.50;;;;;;;;;;5048396;28;20216;-84
2023/03/29 14:21:01;;;;;;;2.90;2.30;;;;;;;;;;5044135;28;20213;-84
2023/03/29 14:23:32;;;;;;;2.87;2.30;;;;;;;;;;5045443;28;20170;-81
2023/03/29 14:26:09;;;;;;;3.90;2.43;;;;;;;;;;5043786;28;20182;-81
2023/03/29 14:28:36;;;;;;;2.90;2.07;;;;;;;;;;5017080;28;20197;-80
2023/03/29 14:31:02;;;;;;;2.43;2.20;;;;;;;;;;5044467;28;20256;-81
2023/03/29 14:33:32;;;;;;;3.60;2.53;;;;;;;;;;5046499;28;20181;-80
2023/03/29 14:36:00;;;;;;;3.10;2.37;;;;;;;;;;5046683;28;20243;-83
2023/03/29 14:38:27;;;;;;;4.60;2.50;;;;;;;;;;5045616;28;20179;-83
2023/03/29 14:40:57;;;;;;;3.40;2.53;;;;;;;;;;5060952;28;20286;-83
2023/03/29 14:43:28;;;;;;;3.00;2.30;;;;;;;;;;5041937;28;20233;-84
2023/03/29 14:45:54;;;;;;;3.97;2.93;;;;;;;;;;5028660;28;20255;-84
2023/03/29 14:48:21;;;;;;;4.27;2.40;;;;;;;;;;5030983;28;20264;-84
2023/03/29 14:50:48;;;;;;;3.07;2.40;;;;;;;;;;5046438;28;20302;-84
2023/03/29 14:53:21;;;;;;;4.33;2.30;;;;;;;;;;5028985;28;20166;-84
2023/03/29 14:55:51;;;;;;;6.53;2.40;;;;;;;;;;5028772;28;20197;-84
2023/03/29 14:58:28;;;;;;;2.70;2.30;;;;;;;;;;5045173;28;20181;-84
2023/03/29 15:00:54;;;;;;;5.53;2.57;;;;;;;;;;5044563;28;20228;-83
2023/03/29 15:03:27;;;;;;;5.10;2.40;;;;;;;;;;5029278;28;20202;-83
2023/03/29 15:05:58;;;;;;;3.83;2.30;;;;;;;;;;5028417;28;20190;-84
2023/03/29 15:08:27;;;;;;;3.77;2.20;;;;;;;;;;5030822;28;20193;-84
2023/03/29 15:10:54;;;;;;;5.53;2.60;;;;;;;;;;5030901;28;22047;-84
2023/03/29 15:13:25;;;;;;;5.30;2.40;;;;;;;;;;5028982;28;20738;-84
2023/03/29 15:16:02;;;;;;;3.77;2.20;;;;;;;;;;5046750;28;20697;-84
2023/03/29 15:18:33;;;;;;;3.60;2.20;;;;;;;;;;5031472;28;20225;-84